Time;durP1;ratioP1;P1;durP2;ratioP2;P2;SDS_P1;SDS_P2;PMS_P1;PMS_P2;Temp;Humidity;BMP_temperature;BMP_pressure;BME280_temperature;BME280_humidity;BME280_pressure;Samples;Min_cycle;Max_cycle;Signal;HPM_P1;HPM_P2
2022/11/17 00:01:27;;;;;;;71.95;36.00;;;;;;;9.10;100.00;95927.34;4986056;28;20054;-64
2022/11/17 00:03:53;;;;;;;73.20;35.38;;;;;;;9.10;100.00;95926.56;4986573;28;20133;-64
2022/11/17 00:06:20;;;;;;;86.20;38.25;;;;;;;8.97;100.00;95901.28;4984878;28;20492;-64
2022/11/17 00:08:47;;;;;;;81.88;40.20;;;;;;;9.10;100.00;95919.06;4985138;28;20054;-63
2022/11/17 00:11:14;;;;;;;76.28;38.22;;;;;;;8.77;100.00;95857.78;4986270;28;20081;-55
2022/11/17 00:16:26;;;;;;;82.13;40.90;;;;;;;9.18;100.00;95914.38;4986124;28;20136;-56
2022/11/17 00:21:38;;;;;;;90.68;42.85;;;;;;;9.09;100.00;95902.88;4986126;28;20081;-64
2022/11/17 00:24:05;;;;;;;77.38;38.25;;;;;;;9.19;100.00;95902.13;4985923;28;20101;-58
2022/11/17 00:26:33;;;;;;;78.35;38.28;;;;;;;8.86;100.00;95905.94;4985870;28;20695;-64
2022/11/17 00:29:05;;;;;;;92.35;43.20;;;;;;;8.61;100.00;95909.75;4986021;28;20085;-64
2022/11/17 00:34:20;;;;;;;90.85;40.20;;;;;;;7.97;100.00;95863.53;4985786;28;20090;-64
2022/11/17 00:36:49;;;;;;;103.82;43.13;;;;;;;8.41;100.00;95900.16;4985805;28;20462;-54
2022/11/17 00:39:18;;;;;;;91.88;40.00;;;;;;;8.19;100.00;95893.66;4985668;28;20577;-65
2022/11/17 00:41:45;;;;;;;92.03;40.70;;;;;;;7.64;100.00;95848.72;4985815;28;20129;-57
2022/11/17 00:44:12;;;;;;;96.88;42.20;;;;;;;8.04;100.00;95893.94;4985544;28;20046;-63
2022/11/17 00:46:39;;;;;;;115.25;45.67;;;;;;;8.27;100.00;95889.00;4985692;28;20108;-57
2022/11/17 00:49:07;;;;;;;104.95;44.78;;;;;;;8.28;100.00;95874.06;4985564;28;20140;-65
2022/11/17 00:51:34;;;;;;;97.50;43.67;;;;;;;8.44;100.00;95866.28;4985818;28;20058;-55
2022/11/17 00:54:03;;;;;;;92.18;39.33;;;;;;;8.56;100.00;95885.25;4985638;28;20601;-65
2022/11/17 00:56:30;;;;;;;75.05;36.38;;;;;;;8.16;100.00;95794.34;4985774;28;20138;-64
2022/11/17 00:58:57;;;;;;;77.47;35.33;;;;;;;8.58;100.00;95864.38;4984037;28;20050;-55
2022/11/17 01:01:24;;;;;;;77.28;36.38;;;;;;;8.77;100.00;95863.31;4985016;28;20090;-57
2022/11/17 01:04:01;;;;;;;78.00;36.72;;;;;;;8.64;100.00;95853.78;4985000;28;20142;-65
2022/11/17 01:06:33;;;;;;;77.18;36.75;;;;;;;8.70;100.00;95863.25;4985474;28;20057;-55
2022/11/17 01:09:10;;;;;;;78.82;38.25;;;;;;;8.86;100.00;95863.72;4985255;28;20149;-57
2022/11/17 01:11:37;;;;;;;77.53;36.42;;;;;;;8.53;100.00;95820.59;4985164;28;20074;-65
2022/11/17 01:14:03;;;;;;;78.93;36.45;;;;;;;8.76;100.00;95845.13;4985190;28;20089;-66
2022/11/17 01:16:31;;;;;;;85.25;37.70;;;;;;;8.95;100.00;95856.69;4985245;28;20512;-65
2022/11/17 01:19:00;;;;;;;75.95;36.63;;;;;;;9.00;100.00;95858.25;4983731;28;20097;-65
2022/11/17 01:21:28;;;;;;;82.00;37.95;;;;;;;9.10;100.00;95860.28;4985240;28;20572;-65
2022/11/17 01:23:57;;;;;;;79.07;36.63;;;;;;;8.33;100.00;95760.59;4985083;28;20050;-65
2022/11/17 01:26:34;;;;;;;78.93;36.83;;;;;;;8.96;100.00;95849.19;4985436;28;20138;-55
2022/11/17 01:29:03;;;;;;;70.88;35.35;;;;;;;8.95;100.00;95844.81;4985389;28;20058;-58
2022/11/17 01:31:33;;;;;;;80.03;35.65;;;;;;;8.80;100.00;95816.38;4985316;28;20089;-65
2022/11/17 01:34:00;;;;;;;79.95;37.22;;;;;;;8.68;100.00;95793.84;4985254;28;20482;-54
2022/11/17 01:39:17;;;;;;;73.53;36.38;;;;;;;9.05;100.00;95831.06;4985450;28;20094;-65
2022/11/17 01:41:43;;;;;;;73.72;34.15;;;;;;;8.59;100.00;95790.66;4985208;28;20058;-56
2022/11/17 01:44:35;;;;;;;88.35;37.70;;;;;;;8.83;100.00;95814.81;4985123;28;20058;-55
2022/11/17 01:47:16;;;;;;;85.20;37.95;;;;;;;8.84;100.00;95824.66;4985112;28;20054;-65
2022/11/17 01:49:44;;;;;;;75.35;37.30;;;;;;;8.35;100.00;95730.63;4985281;28;20129;-66
2022/11/17 01:52:12;;;;;;;79.82;38.83;;;;;;;8.95;100.00;95819.97;4985094;28;20446;-66
2022/11/17 01:54:42;;;;;;;79.25;38.45;;;;;;;9.03;100.00;95816.06;4983837;28;20057;-55
2022/11/17 01:57:13;;;;;;;87.50;37.30;;;;;;;8.61;100.00;95750.47;4984998;28;20100;-65
2022/11/17 01:59:47;;;;;;;90.03;39.53;;;;;;;8.99;100.00;95798.69;4984750;28;20085;-56
2022/11/17 02:02:14;;;;;;;84.10;40.20;;;;;;;9.07;100.00;95816.88;4983434;28;20497;-56
2022/11/17 02:04:48;;;;;;;81.80;39.33;;;;;;;8.66;100.00;95733.50;4985284;28;20563;-55
2022/11/17 02:07:27;;;;;;;89.00;39.03;;;;;;;9.21;100.00;95794.81;4984849;28;20410;-66
2022/11/17 02:09:55;;;;;;;80.88;38.20;;;;;;;9.23;100.00;95797.97;4984747;28;20057;-55
2022/11/17 02:12:25;;;;;;;74.60;37.53;;;;;;;9.23;100.00;95797.97;4984509;28;20113;-55
2022/11/17 02:14:53;;;;;;;73.03;35.28;;;;;;;9.18;100.00;95795.59;4987066;28;20054;-54
2022/11/17 02:17:23;;;;;;;76.88;35.88;;;;;;;8.25;100.00;95645.88;4988243;28;20145;-54
2022/11/17 02:20:01;;;;;;;73.70;37.00;;;;;;;8.77;100.00;95728.03;4987203;28;20120;-55
2022/11/17 02:22:47;;;;;;;83.10;39.63;;;;;;;9.00;100.00;95790.03;4988252;28;20054;-66
2022/11/17 02:25:38;;;;;;;86.63;41.45;;;;;;;8.76;100.00;95756.81;4988080;28;20141;-55
2022/11/17 02:28:22;;;;;;;92.15;41.92;;;;;;;8.89;100.00;95789.19;4988108;28;20117;-55
2022/11/17 02:31:10;;;;;;;91.85;40.70;;;;;;;8.93;100.00;95797.50;4988234;28;20149;-55
2022/11/17 02:34:05;;;;;;;89.03;40.50;;;;;;;8.95;100.00;95803.41;4988196;28;20607;-55
2022/11/17 02:36:40;;;;;;;80.93;40.67;;;;;;;8.49;100.00;95752.75;4988355;28;20138;-66
2022/11/17 02:39:23;;;;;;;92.95;43.83;;;;;;;8.96;100.00;95810.53;4987925;28;20136;-55
2022/11/17 02:44:02;;;;;;;89.25;43.35;;;;;;;8.79;100.00;95780.88;4988067;28;20085;-65
2022/11/17 02:45:10;;;;;;;97.47;43.50;;;;;;;8.99;100.00;95809.75;4988228;28;20613;-54
2022/11/17 02:47:41;;;;;;;91.75;43.08;;;;;;;8.89;100.00;95794.72;4988264;28;20089;-66
2022/11/17 02:50:10;;;;;;;95.68;46.70;;;;;;;9.00;100.00;95800.28;4988053;28;20082;-55
2022/11/17 02:52:36;;;;;;;95.65;47.00;;;;;;;9.06;100.00;95829.09;4987624;28;20577;-54
2022/11/17 02:55:06;;;;;;;102.40;46.90;;;;;;;8.86;100.00;95745.00;4987593;28;20588;-54
2022/11/17 02:57:38;;;;;;;99.40;45.25;;;;;;;9.12;100.00;95800.69;4987861;28;20050;-66
2022/11/17 03:00:09;;;;;;;99.28;47.30;;;;;;;9.11;100.00;95792.81;4987729;28;20141;-56
2022/11/17 03:02:54;;;;;;;117.90;52.90;;;;;;;9.21;100.00;95790.06;4987856;28;20133;-66
2022/11/17 03:05:38;;;;;;;111.82;50.45;;;;;;;9.30;100.00;95775.88;4987368;28;20089;-56
2022/11/17 03:08:25;;;;;;;106.97;49.63;;;;;;;9.31;100.00;95777.44;4987693;28;20137;-54
2022/11/17 03:11:01;;;;;;;100.88;48.70;;;;;;;9.35;100.00;95780.22;4986256;28;20166;-67
2022/11/17 03:13:47;;;;;;;98.60;46.28;;;;;;;9.32;100.00;95773.50;4987366;28;20097;-66
2022/11/17 03:16:28;;;;;;;83.50;40.72;;;;;;;9.22;100.00;95752.19;4987282;28;20054;-57
2022/11/17 03:19:14;;;;;;;73.60;36.53;;;;;;;9.26;100.00;95768.75;4986146;28;20129;-54
2022/11/17 03:21:53;;;;;;;72.40;35.65;;;;;;;9.22;100.00;95754.94;4985486;28;20055;-57
2022/11/17 03:24:29;;;;;;;75.45;36.72;;;;;;;9.14;100.00;95745.84;4986740;28;20086;-64
2022/11/17 03:27:04;;;;;;;68.53;34.00;;;;;;;9.13;100.00;95760.06;4987178;28;20065;-65
2022/11/17 03:29:36;;;;;;;70.32;35.90;;;;;;;8.98;100.00;95752.91;4986957;28;20097;-65
2022/11/17 03:32:06;;;;;;;71.82;33.47;;;;;;;9.08;100.00;95768.72;4987256;28;20093;-64
2022/11/17 03:34:39;;;;;;;69.93;32.25;;;;;;;9.16;100.00;95767.56;4986882;28;20506;-65
2022/11/17 03:37:10;;;;;;;64.20;30.65;;;;;;;9.12;100.00;95756.50;4985507;28;20050;-63
2022/11/17 03:39:42;;;;;;;62.42;30.02;;;;;;;9.15;100.00;95757.72;4995653;28;20069;-56
2022/11/17 03:42:24;;;;;;;58.50;28.77;;;;;;;9.21;100.00;95750.59;5006520;28;20476;-54
2022/11/17 03:45:04;;;;;;;63.30;28.80;;;;;;;9.25;100.00;95748.63;5005517;28;20289;-64
2022/11/17 03:47:33;;;;;;;57.03;29.15;;;;;;;8.97;100.00;95712.69;5004975;28;20144;-64
2022/11/17 03:50:24;;;;;;;54.50;28.60;;;;;;;9.11;100.00;95740.31;5006280;28;20058;-58
2022/11/17 03:52:51;;;;;;;58.15;29.30;;;;;;;8.87;100.00;95685.84;5006160;28;20132;-65
2022/11/17 03:55:18;;;;;;;68.60;31.67;;;;;;;8.82;100.00;95694.53;5005887;28;20085;-55
2022/11/17 03:57:47;;;;;;;69.15;30.52;;;;;;;9.16;100.00;95734.41;5006191;28;20091;-55
2022/11/17 04:00:16;;;;;;;67.97;30.77;;;;;;;8.51;100.00;95638.06;5005898;28;20054;-55
2022/11/17 04:02:45;;;;;;;75.22;37.75;;;;;;;8.93;100.00;95725.72;5006175;28;20058;-64
2022/11/17 04:05:14;;;;;;;76.13;40.53;;;;;;;9.11;100.00;95757.69;5005899;28;20093;-56
2022/11/17 04:07:45;;;;;;;78.22;40.20;;;;;;;9.03;100.00;95749.78;5004772;28;20503;-64
2022/11/17 04:10:21;;;;;;;74.13;37.17;;;;;;;9.01;100.00;95754.88;5005544;28;20084;-55
2022/11/17 04:18:20;;;;;;;88.40;39.35;;;;;;;8.92;100.00;95749.75;5005485;28;20068;-65
2022/11/17 04:20:52;;;;;;;77.18;38.08;;;;;;;8.84;100.00;95756.44;5005261;28;20140;-64
2022/11/17 04:23:20;;;;;;;86.75;40.28;;;;;;;8.85;100.00;95749.72;5005733;28;20050;-66
2022/11/17 04:28:48;;;;;;;109.72;48.22;;;;;;;8.56;100.00;95686.56;5005376;28;20132;-64
2022/11/17 04:31:16;;;;;;;103.30;46.33;;;;;;;8.94;100.00;95738.31;5005628;28;20574;-63
2022/11/17 04:33:54;;;;;;;102.40;45.75;;;;;;;8.98;100.00;95741.88;5005399;28;20141;-64
2022/11/17 06:55:57;;;;;;;58.88;33.03;;;;;;;10.62;100.00;95702.16;5078387;27;1346771;-63
2022/11/17 06:58:24;;;;;;;53.13;31.63;;;;;;;10.68;100.00;95711.63;5084161;28;20048;-62
2022/11/17 07:00:51;;;;;;;52.92;31.90;;;;;;;10.25;100.00;95660.44;5102181;28;20526;-59
2022/11/17 07:03:17;;;;;;;54.40;33.58;;;;;;;10.66;100.00;95708.47;5084016;28;20136;-56
2022/11/17 07:05:45;;;;;;;59.60;35.55;;;;;;;10.02;100.00;95626.88;5096113;28;20040;-58
2022/11/17 07:08:13;;;;;;;62.75;37.65;;;;;;;10.21;100.00;95637.50;5083486;28;20509;-56
2022/11/17 07:10:39;;;;;;;66.13;37.10;;;;;;;10.64;100.00;95704.53;5101213;28;20063;-61
2022/11/17 07:13:14;;;;;;;61.75;34.85;;;;;;;10.64;100.00;95693.44;5100444;28;20126;-56
2022/11/17 07:15:41;;;;;;;60.22;36.78;;;;;;;10.40;100.00;95678.53;5101358;28;20055;-56
2022/11/17 07:18:07;;;;;;;62.25;34.15;;;;;;;10.43;100.00;95666.66;5101114;28;20052;-59
2022/11/17 07:20:34;;;;;;;52.75;32.58;;;;;;;9.88;100.00;95571.63;5101029;28;20051;-55
2022/11/17 07:23:01;;;;;;;61.63;33.65;;;;;;;10.01;100.00;95600.41;5095856;28;20430;-56
2022/11/17 07:25:27;;;;;;;65.88;34.90;;;;;;;10.15;100.00;95616.97;5100269;28;20051;-63
2022/11/17 07:27:58;;;;;;;54.92;32.85;;;;;;;10.30;100.00;95634.31;5082784;28;20422;-56
2022/11/17 07:30:25;;;;;;;62.10;34.63;;;;;;;10.61;100.00;95678.44;5101554;28;20055;-62
2022/11/17 07:32:52;;;;;;;64.60;34.75;;;;;;;10.01;100.00;95625.31;5100907;28;20054;-72
2022/11/17 07:35:21;;;;;;;73.32;40.50;;;;;;;10.69;100.00;95679.97;5099672;28;20056;-65
2022/11/17 07:37:47;;;;;;;75.00;41.90;;;;;;;10.69;100.00;95679.97;5100299;28;20044;-60
2022/11/17 07:40:14;;;;;;;74.75;40.92;;;;;;;10.32;100.00;95621.63;5100701;28;20052;-56
2022/11/17 07:42:41;;;;;;;78.93;44.60;;;;;;;10.48;100.00;95640.53;5100840;28;20571;-61
2022/11/17 07:45:08;;;;;;;77.47;46.92;;;;;;;10.38;100.00;95614.50;5101109;28;20144;-60
2022/11/17 07:47:35;;;;;;;82.78;47.97;;;;;;;8.55;100.00;95342.84;5100892;28;20040;-55
2022/11/17 07:50:03;;;;;;;88.72;50.33;;;;;;;10.13;100.00;95575.09;5100565;28;20099;-61
2022/11/17 07:52:30;;;;;;;72.38;41.45;;;;;;;10.11;100.00;95560.09;5100962;28;20052;-56
2022/11/17 07:54:56;;;;;;;56.83;35.58;;;;;;;10.81;100.00;95658.56;5092468;28;20250;-61
2022/11/17 07:57:24;;;;;;;129.45;64.65;;;;;;;9.94;100.00;95539.59;5085893;28;20105;-58
2022/11/17 07:59:51;;;;;;;124.45;65.50;;;;;;;10.04;100.00;95527.69;5067892;28;20084;-60
2022/11/17 08:02:17;;;;;;;117.18;58.78;;;;;;;11.08;100.00;95665.09;5086973;28;20064;-60
2022/11/17 08:04:44;;;;;;;95.18;49.95;;;;;;;11.20;100.00;95670.16;5087526;28;20481;-62
2022/11/17 08:07:11;;;;;;;65.72;38.45;;;;;;;10.41;100.00;95541.75;5086141;28;20306;-60
2022/11/17 08:09:37;;;;;;;63.97;39.15;;;;;;;11.23;100.00;95658.25;5087234;28;20518;-55
2022/11/17 08:12:04;;;;;;;57.15;37.33;;;;;;;11.28;100.00;95657.81;5087117;28;20048;-61
2022/11/17 08:14:31;;;;;;;54.53;34.92;;;;;;;11.39;100.00;95683.47;5086153;28;20044;-57
2022/11/17 08:16:58;;;;;;;49.92;32.67;;;;;;;11.20;100.00;95659.06;5086667;28;20078;-60
2022/11/17 08:19:25;;;;;;;54.42;35.47;;;;;;;11.17;100.00;95648.78;5086326;28;20184;-58
2022/11/17 08:21:51;;;;;;;59.92;36.28;;;;;;;9.61;100.00;95437.84;5085360;28;20071;-58
2022/11/17 08:24:18;;;;;;;60.88;36.42;;;;;;;11.35;100.00;95679.94;5068334;28;20052;-56
2022/11/17 08:26:45;;;;;;;60.05;36.90;;;;;;;10.97;100.00;95628.38;5067761;28;20067;-64
2022/11/17 08:29:12;;;;;;;61.15;34.53;;;;;;;11.19;100.00;95665.81;5065456;28;20071;-59
2022/11/17 08:31:43;;;;;;;74.35;45.13;;;;;;;11.33;100.00;95674.00;5063518;28;20066;-65
2022/11/17 08:34:09;;;;;;;80.05;47.70;;;;;;;10.31;100.00;95525.97;5066045;28;20512;-66
2022/11/17 08:36:36;;;;;;;74.00;45.38;;;;;;;11.26;100.00;95685.13;5085636;28;20070;-56
2022/11/17 08:39:03;;;;;;;77.35;49.83;;;;;;;11.34;100.00;95720.72;5085729;28;20102;-62
2022/11/17 08:41:31;;;;;;;87.35;52.05;;;;;;;11.23;100.00;95719.22;5085601;28;20048;-59
2022/11/17 08:43:58;;;;;;;110.20;62.72;;;;;;;11.19;100.00;95735.09;5067794;28;20052;-59
2022/11/17 08:46:25;;;;;;;110.68;67.60;;;;;;;10.86;100.00;95674.75;5084581;28;20063;-65
2022/11/17 08:48:52;;;;;;;112.13;63.60;;;;;;;11.16;100.00;95713.75;5084656;28;20597;-59
2022/11/17 08:51:23;;;;;;;112.30;64.97;;;;;;;10.33;100.00;95594.75;5085139;28;20117;-55
2022/11/17 08:53:50;;;;;;;95.47;54.13;;;;;;;11.39;100.00;95738.91;5085754;28;20059;-57
2022/11/17 08:56:17;;;;;;;98.07;52.85;;;;;;;11.28;100.00;95727.09;5083414;28;20056;-57
2022/11/17 08:58:44;;;;;;;94.38;53.67;;;;;;;11.20;100.00;95708.94;5084252;28;20052;-61
2022/11/17 09:01:16;;;;;;;89.00;48.60;;;;;;;11.24;100.00;95698.63;5084100;28;20044;-58
2022/11/17 09:03:45;;;;;;;78.30;42.33;;;;;;;11.37;100.00;95731.00;5084027;28;20154;-62
2022/11/17 09:06:12;;;;;;;72.72;41.92;;;;;;;11.57;100.00;95751.44;5083235;28;20048;-54
2022/11/17 09:08:39;;;;;;;76.63;40.78;;;;;;;11.10;100.00;95654.38;5082983;28;20515;-61
2022/11/17 09:11:13;;;;;;;76.60;39.03;;;;;;;11.50;100.00;95753.47;5083542;28;20082;-58
2022/11/17 09:13:40;;;;;;;83.10;39.63;;;;;;;11.57;100.00;95756.22;5078738;28;20048;-60
2022/11/17 09:16:09;;;;;;;77.80;41.00;;;;;;;11.51;100.00;95749.50;5083605;28;20051;-55
2022/11/17 09:18:37;;;;;;;74.47;39.25;;;;;;;11.37;100.00;95742.09;5083890;28;20093;-56
2022/11/17 09:21:07;;;;;;;76.32;38.88;;;;;;;11.29;100.00;95707.28;5066162;28;20147;-61
2022/11/17 09:23:34;;;;;;;77.38;40.63;;;;;;;11.61;100.00;95732.78;5085697;28;20470;-55
2022/11/17 09:26:07;;;;;;;85.15;41.75;;;;;;;11.31;100.00;95657.00;5067107;28;20052;-55
2022/11/17 09:28:34;;;;;;;81.88;41.00;;;;;;;11.44;100.00;95664.41;5067259;28;20121;-55
2022/11/17 09:31:13;;;;;;;87.57;45.00;;;;;;;10.93;100.00;95566.66;5085377;28;20076;-55
2022/11/17 09:33:40;;;;;;;85.03;44.58;;;;;;;11.89;100.00;95695.69;5085525;28;20048;-62
2022/11/17 09:36:07;;;;;;;80.20;45.30;;;;;;;11.97;100.00;95692.47;5085319;28;20553;-54
2022/11/17 09:38:35;;;;;;;73.38;41.80;;;;;;;12.00;100.00;95697.19;5085397;28;20083;-60
2022/11/17 09:41:09;;;;;;;77.70;41.97;;;;;;;11.94;100.00;95692.50;5085253;28;20091;-60
2022/11/17 09:43:38;;;;;;;76.33;43.53;;;;;;;11.94;100.00;95675.84;5085111;28;20522;-56
2022/11/17 09:46:16;;;;;;;72.90;41.60;;;;;;;11.83;100.00;95664.84;5085341;28;20496;-55
2022/11/17 09:49:26;;;;;;;62.38;35.47;;;;;;;11.96;100.00;95668.69;5085447;28;20065;-60
2022/11/17 09:51:57;;;;;;;56.60;31.67;;;;;;;11.93;100.00;95663.19;5084466;28;20059;-58
2022/11/17 09:54:43;;;;;;;85.22;47.15;;;;;;;11.49;100.00;95649.31;5084854;28;20086;-60
2022/11/17 09:57:33;;;;;;;62.55;35.13;;;;;;;11.93;100.00;95652.84;5084107;28;20112;-55
2022/11/17 10:00:20;;;;;;;64.07;33.50;;;;;;;12.12;100.00;95654.25;5084531;28;20105;-57
2022/11/17 10:02:47;;;;;;;51.40;29.17;;;;;;;11.79;100.00;95597.50;5084819;28;21252;-60
2022/11/17 10:05:19;;;;;;;58.78;30.20;;;;;;;12.44;100.00;95665.75;5084352;28;20051;-63
2022/11/17 10:07:49;;;;;;;48.05;27.80;;;;;;;12.42;100.00;95640.41;5066427;28;20048;-55
2022/11/17 10:10:23;;;;;;;48.33;27.90;;;;;;;12.56;100.00;95645.75;5084514;28;20052;-61
2022/11/17 10:12:56;;;;;;;47.13;27.40;;;;;;;12.30;100.00;95593.72;5084012;28;20056;-61
2022/11/17 10:15:28;;;;;;;51.10;27.90;;;;;;;12.84;100.00;95644.56;5076139;28;20244;-60
2022/11/17 10:17:55;;;;;;;46.67;25.90;;;;;;;12.72;100.00;95640.38;5067789;28;20071;-61
2022/11/17 10:20:22;;;;;;;53.72;27.15;;;;;;;12.15;100.00;95604.22;5083017;28;20056;-55
2022/11/17 10:22:52;;;;;;;53.13;26.15;;;;;;;12.10;100.00;95645.53;5084234;28;20048;-55
2022/11/17 10:25:39;;;;;;;53.60;26.00;;;;;;;11.91;100.00;95648.91;5084450;28;20091;-55
2022/11/17 10:28:21;;;;;;;50.30;26.15;;;;;;;11.69;100.00;95647.56;5066029;28;20495;-61
2022/11/17 10:30:53;;;;;;;56.53;29.65;;;;;;;11.47;100.00;95596.25;5084027;28;20088;-59
2022/11/17 10:33:33;;;;;;;55.75;29.92;;;;;;;12.27;100.00;95638.97;5084487;28;20589;-56
2022/11/17 10:36:01;;;;;;;57.83;29.35;;;;;;;12.89;100.00;95650.47;5084518;28;20051;-59
2022/11/17 10:38:28;;;;;;;51.35;27.15;;;;;;;13.39;100.00;95631.81;5084175;28;20498;-56
2022/11/17 10:40:57;;;;;;;41.83;24.58;;;;;;;13.84;100.00;95637.00;5084253;28;20091;-61
2022/11/17 10:43:35;;;;;;;39.85;23.13;;;;;;;13.72;100.00;95605.00;5084680;28;20125;-55
2022/11/17 10:46:06;;;;;;;40.90;23.15;;;;;;;14.24;100.00;95619.94;5084547;28;20052;-55
2022/11/17 10:48:35;;;;;;;36.13;23.00;;;;;;;14.67;100.00;95644.91;5066177;28;20083;-57
2022/11/17 10:51:20;;;;;;;47.05;22.70;;;;;;;14.49;100.00;95619.44;5066108;28;20064;-59
2022/11/17 10:54:25;;;;;;;32.35;19.30;;;;;;;14.56;100.00;95644.34;5084367;28;20052;-56
2022/11/17 10:56:57;;;;;;;36.50;20.98;;;;;;;14.41;100.00;95637.50;5083487;28;20056;-62
2022/11/17 10:59:44;;;;;;;28.63;16.63;;;;;;;13.61;100.00;95633.03;5084022;28;20063;-58
2022/11/17 11:02:40;;;;;;;28.27;18.38;;;;;;;13.62;100.00;95633.81;5083603;28;20056;-62
2022/11/17 11:05:12;;;;;;;33.05;18.73;;;;;;;13.92;100.00;95624.53;5062047;28;20060;-56
2022/11/17 11:07:39;;;;;;;28.67;17.65;;;;;;;14.32;100.00;95620.59;5065851;28;20056;-56
2022/11/17 11:10:26;;;;;;;30.70;18.10;;;;;;;14.64;100.00;95588.03;5083766;28;20137;-54
2022/11/17 11:13:16;;;;;;;24.27;16.02;;;;;;;15.22;96.73;95617.00;5083596;28;20080;-60
2022/11/17 11:15:43;;;;;;;21.75;14.60;;;;;;;15.02;97.01;95568.84;5083631;28;20467;-55
2022/11/17 11:18:16;;;;;;;29.40;17.00;;;;;;;15.34;97.11;95591.16;5083553;28;20060;-57
2022/11/17 11:20:58;;;;;;;30.58;16.48;;;;;;;15.59;92.89;95624.84;5083558;28;20060;-61
2022/11/17 11:23:43;;;;;;;24.35;15.10;;;;;;;15.53;93.20;95626.59;5065684;28;20053;-56
2022/11/17 11:26:21;;;;;;;23.38;15.48;;;;;;;15.69;92.41;95623.00;5083655;28;20048;-56
2022/11/17 11:29:09;;;;;;;24.25;13.88;;;;;;;15.47;91.42;95622.78;5084002;28;20056;-58
2022/11/17 11:32:00;;;;;;;20.48;12.95;;;;;;;15.57;89.68;95632.88;5087708;28;20056;-58
2022/11/17 11:34:41;;;;;;;22.67;13.32;;;;;;;15.57;90.77;95632.88;5088032;28;20052;-56
2022/11/17 11:37:10;;;;;;;23.10;13.90;;;;;;;15.98;91.26;95613.44;5069621;28;20089;-56
2022/11/17 11:39:48;;;;;;;24.52;13.10;;;;;;;16.42;89.20;95629.38;5087633;28;20083;-61
2022/11/17 11:42:31;;;;;;;19.95;12.93;;;;;;;16.75;87.83;95632.06;5087444;28;20113;-57
2022/11/17 11:45:23;;;;;;;17.40;11.40;;;;;;;16.72;83.25;95632.97;5067357;28;20577;-61
2022/11/17 11:48:11;;;;;;;23.55;12.90;;;;;;;16.92;85.50;95636.34;5066677;28;20102;-56
2022/11/17 11:50:51;;;;;;;20.50;13.45;;;;;;;17.44;83.26;95633.88;5066911;28;20055;-59
2022/11/17 11:53:23;;;;;;;20.17;13.43;;;;;;;17.58;82.37;95630.66;5049148;28;20056;-56
2022/11/17 11:56:14;;;;;;;21.73;13.00;;;;;;;17.63;81.85;95627.28;5066669;28;20126;-56
2022/11/17 11:58:50;;;;;;;18.02;13.02;;;;;;;17.42;82.48;95586.75;5071513;28;20044;-60
2022/11/17 12:01:19;;;;;;;21.05;13.00;;;;;;;17.67;77.26;95625.19;5075487;28;20098;-62
2022/11/17 12:04:10;;;;;;;21.60;13.32;;;;;;;15.18;79.39;95384.75;5086218;28;20052;-62
2022/11/17 12:06:59;;;;;;;13.18;9.27;;;;;;;16.52;78.98;95569.63;5085332;28;20052;-57
2022/11/17 12:09:58;;;;;;;20.95;11.23;;;;;;;16.80;79.29;95617.53;5085503;28;20154;-58
2022/11/17 12:12:36;;;;;;;16.40;10.93;;;;;;;15.85;81.51;95561.56;5085334;28;20044;-64
2022/11/17 12:15:18;;;;;;;23.42;17.48;;;;;;;16.38;81.66;95620.31;5061702;28;20048;-60
2022/11/17 12:17:51;;;;;;;14.50;9.32;;;;;;;16.16;83.49;95619.34;5068265;28;20036;-61
2022/11/17 12:20:29;;;;;;;14.33;9.83;;;;;;;16.12;83.96;95623.47;5086442;28;20044;-60
2022/11/17 12:23:51;;;;;;;14.82;9.00;;;;;;;15.82;83.37;95624.63;5067545;28;20065;-58
2022/11/17 12:26:21;;;;;;;12.82;9.00;;;;;;;15.65;84.13;95623.09;5002283;28;20136;-59
2022/11/17 12:28:47;;;;;;;15.10;10.30;;;;;;;15.31;84.59;95597.63;5080511;28;20101;-65
2022/11/17 12:31:23;;;;;;;19.15;11.25;;;;;;;15.62;83.37;95629.56;5085985;28;20556;-59
2022/11/17 12:33:52;;;;;;;14.40;9.80;;;;;;;15.56;83.27;95634.09;5082969;28;20575;-63
2022/11/17 12:36:22;;;;;;;15.80;9.73;;;;;;;15.57;83.90;95632.88;5084292;28;20538;-57
2022/11/17 12:38:56;;;;;;;14.82;10.02;;;;;;;15.07;83.66;95538.44;5078251;28;20043;-56
2022/11/17 12:41:48;;;;;;;16.55;10.90;;;;;;;15.62;84.51;95626.75;5085282;28;20120;-58
2022/11/17 12:44:36;;;;;;;15.93;11.05;;;;;;;15.59;82.78;95636.00;5085229;28;20056;-60
2022/11/17 12:47:13;;;;;;;14.93;9.85;;;;;;;15.49;84.40;95631.47;5076849;28;20116;-61
2022/11/17 12:49:47;;;;;;;14.45;10.48;;;;;;;15.40;85.37;95634.09;5084965;28;20178;-57
2022/11/17 12:52:31;;;;;;;40.88;28.73;;;;;;;15.34;84.16;95624.66;5082470;28;20120;-58
2022/11/17 12:55:20;;;;;;;16.13;10.80;;;;;;;15.55;84.17;95643.72;5085076;28;20118;-58
2022/11/17 12:57:53;;;;;;;16.52;10.35;;;;;;;15.55;84.70;95646.50;5081657;28;20110;-59
2022/11/17 13:00:21;;;;;;;;;;;;;;;15.65;82.66;95631.47;5065113;28;20047;-56
2022/11/17 13:03:09;;;;;;;14.05;9.63;;;;;;;15.46;84.05;95635.13;5078881;28;20019;-63
2022/11/17 13:05:37;;;;;;;15.93;9.52;;;;;;;15.57;83.54;95620.94;5084223;28;20514;-57
2022/11/17 13:08:30;;;;;;;16.75;9.77;;;;;;;15.70;83.68;95635.75;5084464;28;20048;-56
2022/11/17 13:11:06;;;;;;;16.90;10.43;;;;;;;15.18;83.32;95588.38;5060122;28;20052;-58
2022/11/17 13:13:33;;;;;;;16.25;10.70;;;;;;;15.42;84.99;95637.25;5071927;28;20554;-55
2022/11/17 13:16:03;;;;;;;16.15;9.68;;;;;;;14.15;85.09;95437.91;5065078;28;20051;-60
2022/11/17 13:18:41;;;;;;;16.42;10.05;;;;;;;15.24;85.86;95631.25;5084760;28;20091;-64
2022/11/17 13:21:30;;;;;;;15.77;10.40;;;;;;;15.24;86.41;95631.25;5085070;28;20055;-60
2022/11/17 13:23:59;;;;;;;14.30;9.77;;;;;;;15.28;84.98;95634.78;5084239;28;20048;-57
2022/11/17 13:26:34;;;;;;;13.15;9.10;;;;;;;15.16;84.56;95632.66;5065411;28;20063;-57
2022/11/17 13:29:12;;;;;;;16.45;10.70;;;;;;;14.96;86.52;95626.34;5066413;28;20099;-64
2022/11/17 13:31:39;;;;;;;17.73;11.70;;;;;;;15.10;86.40;95642.75;5081098;28;20071;-57
2022/11/17 13:34:09;;;;;;;16.90;11.73;;;;;;;14.96;87.66;95651.44;5065125;28;20081;-56
2022/11/17 13:36:54;;;;;;;17.83;11.35;;;;;;;14.94;86.46;95653.88;5077073;28;20054;-56
2022/11/17 13:39:21;;;;;;;17.00;10.75;;;;;;;15.02;86.80;95652.50;5063289;28;20059;-60
2022/11/17 13:41:54;;;;;;;16.60;10.88;;;;;;;12.70;86.62;95295.53;5080918;28;20056;-60
2022/11/17 13:44:25;;;;;;;26.05;15.00;;;;;;;15.02;87.11;95660.88;5082417;28;20043;-58
2022/11/17 13:46:55;;;;;;;36.38;18.52;;;;;;;14.83;87.64;95628.22;5082792;28;20100;-62
2022/11/17 13:49:38;;;;;;;33.33;19.05;;;;;;;15.04;87.78;95650.06;5083462;28;20572;-61
2022/11/17 13:52:23;;;;;;;17.33;11.13;;;;;;;14.75;89.95;95660.25;5064155;28;20079;-61
2022/11/17 13:54:50;;;;;;;16.15;11.85;;;;;;;14.64;91.12;95660.50;5081855;28;20079;-58
2022/11/17 13:57:24;;;;;;;18.70;10.73;;;;;;;14.32;90.59;95615.03;5083805;28;20500;-62
2022/11/17 13:59:52;;;;;;;20.15;10.23;;;;;;;14.54;91.24;95671.88;5084697;28;20439;-58
2022/11/17 14:02:18;;;;;;;15.82;10.27;;;;;;;14.61;90.54;95683.66;5083418;28;20120;-62
2022/11/17 14:05:13;;;;;;;18.25;12.40;;;;;;;14.58;90.64;95683.72;5083030;28;20113;-60
2022/11/17 14:07:41;;;;;;;25.65;17.05;;;;;;;14.13;90.72;95624.13;5072129;28;20052;-59
2022/11/17 14:10:19;;;;;;;84.65;50.17;;;;;;;14.57;91.29;95688.53;5082184;28;20127;-59
2022/11/17 14:12:51;;;;;;;88.93;55.47;;;;;;;14.17;91.35;95641.53;5062770;28;20063;-60
2022/11/17 14:15:21;;;;;;;44.55;27.45;;;;;;;14.43;91.27;95676.88;5082483;28;20116;-62
2022/11/17 14:18:26;;;;;;;49.30;34.30;;;;;;;14.36;91.64;95700.09;5061722;28;20472;-58
2022/11/17 14:21:04;;;;;;;52.58;35.08;;;;;;;14.12;92.79;95683.81;5030126;28;20474;-62
2022/11/17 14:23:30;;;;;;;51.60;34.53;;;;;;;14.16;93.60;95685.34;5073600;28;20136;-59